Terminal Aerodrome Forecast
Issued by NWS Green Bay, WI

Home | Current Version | Previous Version | Graphics & Text | Print | Product List | Glossary On
Versions: 1 2 3 4 5 6 7 8 9 10 11 12 13 14 15 16 17 18 19
000
FTUS43 KGRB 171731
TAFGRB
TAF
KGRB 171731Z 1718/1818 28009G15KT P6SM SCT090
     FM172200 28007KT P6SM FEW250
     FM180000 33005KT P6SM SCT250
     FM181200 05009G14KT P6SM BKN250
     FM181400 08007KT P6SM BKN250=

USA.gov is the U.S. government's official web portal to all federal, state and local government web resources and services.